sensor_id;sensor_type;location;lat;lon;timestamp;temperature;humidity
13699;DHT22;6921;53.642;9.956;2023-02-08T00:08:15;-2.70;99.90
13699;DHT22;6921;53.642;9.956;2023-02-08T00:10:18;-2.70;99.90
13699;DHT22;6921;53.642;9.956;2023-02-08T00:12:21;-2.60;99.90
13699;DHT22;6921;53.642;9.956;2023-02-08T00:14:25;-2.60;99.90
13699;DHT22;6921;53.642;9.956;2023-02-08T00:16:28;-2.70;99.90
13699;DHT22;6921;53.642;9.956;2023-02-08T00:18:31;-2.60;99.90
13699;DHT22;6921;53.642;9.956;2023-02-08T00:20:37;-2.60;99.90
13699;DHT22;6921;53.642;9.956;2023-02-08T00:22:40;-2.70;99.90
13699;DHT22;6921;53.642;9.956;2023-02-08T00:24:43;-2.60;99.90
13699;DHT22;6921;53.642;9.956;2023-02-08T00:26:46;-2.60;99.90
13699;DHT22;6921;53.642;9.956;2023-02-08T00:28:49;0.30;99.90
13699;DHT22;6921;53.642;9.956;2023-02-08T00:30:53;-2.60;99.90
13699;DHT22;6921;53.642;9.956;2023-02-08T00:32:57;-2.70;99.90
13699;DHT22;6921;53.642;9.956;2023-02-08T00:35:00;-2.60;99.90
13699;DHT22;6921;53.642;9.956;2023-02-08T00:37:03;-3.00;99.90
13699;DHT22;6921;53.642;9.956;2023-02-08T00:39:06;-2.70;99.90
13699;DHT22;6921;53.642;9.956;2023-02-08T01:41:04;-2.90;99.90
13699;DHT22;6921;53.642;9.956;2023-02-08T01:43:15;-3.10;99.90
13699;DHT22;6921;53.642;9.956;2023-02-08T01:45:24;-3.20;99.90
13699;DHT22;6921;53.642;9.956;2023-02-08T01:47:28;-3.20;99.90
13699;DHT22;6921;53.642;9.956;2023-02-08T01:49:33;-3.20;99.90
13699;DHT22;6921;53.642;9.956;2023-02-08T01:55:51;-3.20;99.90
13699;DHT22;6921;53.642;9.956;2023-02-08T02:00:06;-3.20;99.90
13699;DHT22;6921;53.642;9.956;2023-02-08T02:02:13;-3.20;99.90
13699;DHT22;6921;53.642;9.956;2023-02-08T02:06:23;-3.40;99.90
13699;DHT22;6921;53.642;9.956;2023-02-08T02:08:26;-3.20;99.90
13699;DHT22;6921;53.642;9.956;2023-02-08T02:23:29;-3.30;99.90
13699;DHT22;6921;53.642;9.956;2023-02-08T02:32:58;-3.20;99.90
13699;DHT22;6921;53.642;9.956;2023-02-08T02:35:07;-3.20;99.90
13699;DHT22;6921;53.642;9.956;2023-02-08T02:39:32;-3.30;99.90
13699;DHT22;6921;53.642;9.956;2023-02-08T02:41:43;-3.30;99.90
13699;DHT22;6921;53.642;9.956;2023-02-08T02:44:12;-3.90;99.90
13699;DHT22;6921;53.642;9.956;2023-02-08T02:46:22;-1.10;99.90
13699;DHT22;6921;53.642;9.956;2023-02-08T02:48:31;-3.50;99.90
13699;DHT22;6921;53.642;9.956;2023-02-08T02:50:40;-3.50;99.90
13699;DHT22;6921;53.642;9.956;2023-02-08T02:52:49;-3.50;99.90
13699;DHT22;6921;53.642;9.956;2023-02-08T02:54:54;-3.40;99.90
13699;DHT22;6921;53.642;9.956;2023-02-08T02:57:02;-4.00;99.90
13699;DHT22;6921;53.642;9.956;2023-02-08T02:59:10;-3.60;99.90
13699;DHT22;6921;53.642;9.956;2023-02-08T03:01:21;-3.50;99.90
13699;DHT22;6921;53.642;9.956;2023-02-08T03:03:31;-2.10;99.90
13699;DHT22;6921;53.642;9.956;2023-02-08T03:05:34;-3.50;99.90
13699;DHT22;6921;53.642;9.956;2023-02-08T03:07:50;-3.50;99.90
13699;DHT22;6921;53.642;9.956;2023-02-08T03:10:06;-3.90;99.90
13699;DHT22;6921;53.642;9.956;2023-02-08T03:12:27;-3.90;99.90
13699;DHT22;6921;53.642;9.956;2023-02-08T03:14:43;-3.50;99.90
13699;DHT22;6921;53.642;9.956;2023-02-08T03:17:14;-3.40;99.90
13699;DHT22;6921;53.642;9.956;2023-02-08T03:19:26;-3.80;99.90
13699;DHT22;6921;53.642;9.956;2023-02-08T03:21:39;-4.30;99.90
13699;DHT22;6921;53.642;9.956;2023-02-08T03:23:48;-3.30;99.90
13699;DHT22;6921;53.642;9.956;2023-02-08T03:26:01;-3.40;99.90
13699;DHT22;6921;53.642;9.956;2023-02-08T03:28:09;-3.80;99.90
13699;DHT22;6921;53.642;9.956;2023-02-08T03:30:16;-3.60;99.90
13699;DHT22;6921;53.642;9.956;2023-02-08T03:32:23;-3.70;99.90
13699;DHT22;6921;53.642;9.956;2023-02-08T03:34:34;-3.90;99.90
13699;DHT22;6921;53.642;9.956;2023-02-08T03:36:41;-3.30;99.90
13699;DHT22;6921;53.642;9.956;2023-02-08T03:38:47;-3.90;99.90
13699;DHT22;6921;53.642;9.956;2023-02-08T03:40:53;-3.30;99.90
13699;DHT22;6921;53.642;9.956;2023-02-08T05:09:45;-3.50;99.90
13699;DHT22;6921;53.642;9.956;2023-02-08T05:13:53;-3.50;99.90
13699;DHT22;6921;53.642;9.956;2023-02-08T05:15:55;-3.60;99.90
13699;DHT22;6921;53.642;9.956;2023-02-08T05:17:59;-3.80;99.90
13699;DHT22;6921;53.642;9.956;2023-02-08T05:20:02;-3.60;99.90
13699;DHT22;6921;53.642;9.956;2023-02-08T05:26:13;-3.40;99.90
13699;DHT22;6921;53.642;9.956;2023-02-08T05:28:17;-3.40;99.90
13699;DHT22;6921;53.642;9.956;2023-02-08T05:30:21;-3.60;99.90
13699;DHT22;6921;53.642;9.956;2023-02-08T05:32:25;-3.40;99.90
13699;DHT22;6921;53.642;9.956;2023-02-08T05:36:31;-3.50;99.90
13699;DHT22;6921;53.642;9.956;2023-02-08T05:38:34;-3.30;99.90
13699;DHT22;6921;53.642;9.956;2023-02-08T05:40:37;-3.20;99.90
13699;DHT22;6921;53.642;9.956;2023-02-08T05:44:45;-3.30;99.90
13699;DHT22;6921;53.642;9.956;2023-02-08T05:46:49;-3.20;99.90
13699;DHT22;6921;53.642;9.956;2023-02-08T05:48:52;-3.30;99.90
13699;DHT22;6921;53.642;9.956;2023-02-08T05:55:03;-3.20;99.90
13699;DHT22;6921;53.642;9.956;2023-02-08T05:57:06;-2.20;99.90
13699;DHT22;6921;53.642;9.956;2023-02-08T05:59:10;-3.40;99.90
13699;DHT22;6921;53.642;9.956;2023-02-08T06:01:13;-3.20;99.90
13699;DHT22;6921;53.642;9.956;2023-02-08T06:03:17;-3.80;99.90
13699;DHT22;6921;53.642;9.956;2023-02-08T06:05:20;-3.60;99.90
13699;DHT22;6921;53.642;9.956;2023-02-08T06:07:23;-3.40;99.90
13699;DHT22;6921;53.642;9.956;2023-02-08T06:09:26;-3.60;99.90
13699;DHT22;6921;53.642;9.956;2023-02-08T06:11:29;-1.20;99.90
13699;DHT22;6921;53.642;9.956;2023-02-08T06:13:32;-3.60;99.90
13699;DHT22;6921;53.642;9.956;2023-02-08T06:15:35;-3.10;99.90
13699;DHT22;6921;53.642;9.956;2023-02-08T06:17:38;-3.50;99.90
13699;DHT22;6921;53.642;9.956;2023-02-08T06:19:42;-3.40;99.90
13699;DHT22;6921;53.642;9.956;2023-02-08T06:21:46;-3.50;99.90
13699;DHT22;6921;53.642;9.956;2023-02-08T06:23:49;-3.70;99.90
13699;DHT22;6921;53.642;9.956;2023-02-08T06:25:52;-3.40;99.90
13699;DHT22;6921;53.642;9.956;2023-02-08T06:27:55;-3.50;99.90
13699;DHT22;6921;53.642;9.956;2023-02-08T06:29:58;-3.20;99.90
13699;DHT22;6921;53.642;9.956;2023-02-08T06:32:01;-3.30;99.90
13699;DHT22;6921;53.642;9.956;2023-02-08T06:34:04;-3.10;99.90
13699;DHT22;6921;53.642;9.956;2023-02-08T06:36:08;-3.60;99.90
13699;DHT22;6921;53.642;9.956;2023-02-08T06:38:12;-3.20;99.90
13699;DHT22;6921;53.642;9.956;2023-02-08T06:40:15;-3.60;99.90
13699;DHT22;6921;53.642;9.956;2023-02-08T06:42:18;-3.10;99.90
13699;DHT22;6921;53.642;9.956;2023-02-08T06:44:21;-0.70;99.90
13699;DHT22;6921;53.642;9.956;2023-02-08T06:46:25;-3.30;99.90
13699;DHT22;6921;53.642;9.956;2023-02-08T06:48:28;-3.20;99.90
13699;DHT22;6921;53.642;9.956;2023-02-08T06:50:31;-3.40;99.90
13699;DHT22;6921;53.642;9.956;2023-02-08T06:52:35;-3.30;99.90
13699;DHT22;6921;53.642;9.956;2023-02-08T06:54:38;-3.60;99.90
13699;DHT22;6921;53.642;9.956;2023-02-08T06:56:41;-3.80;99.90
13699;DHT22;6921;53.642;9.956;2023-02-08T06:58:44;-3.50;99.90
13699;DHT22;6921;53.642;9.956;2023-02-08T07:00:47;-3.40;99.90
13699;DHT22;6921;53.642;9.956;2023-02-08T07:02:50;-3.50;99.90
13699;DHT22;6921;53.642;9.956;2023-02-08T07:04:54;-3.50;99.90
13699;DHT22;6921;53.642;9.956;2023-02-08T07:06:57;-3.60;99.90
13699;DHT22;6921;53.642;9.956;2023-02-08T07:09:01;-3.60;99.90
13699;DHT22;6921;53.642;9.956;2023-02-08T07:11:07;-3.20;99.90
13699;DHT22;6921;53.642;9.956;2023-02-08T07:13:10;-3.10;99.90
13699;DHT22;6921;53.642;9.956;2023-02-08T07:17:16;-3.10;99.90
13699;DHT22;6921;53.642;9.956;2023-02-08T07:19:19;-3.60;99.90
13699;DHT22;6921;53.642;9.956;2023-02-08T07:21:22;-3.10;99.90
13699;DHT22;6921;53.642;9.956;2023-02-08T07:23:26;-3.80;99.90
13699;DHT22;6921;53.642;9.956;2023-02-08T07:25:30;-3.00;99.90
13699;DHT22;6921;53.642;9.956;2023-02-08T07:27:33;-3.00;99.90
13699;DHT22;6921;53.642;9.956;2023-02-08T07:29:37;-3.50;99.90
13699;DHT22;6921;53.642;9.956;2023-02-08T07:31:40;-2.00;99.90
13699;DHT22;6921;53.642;9.956;2023-02-08T07:33:44;-3.20;99.90
13699;DHT22;6921;53.642;9.956;2023-02-08T07:35:47;-3.80;99.90
13699;DHT22;6921;53.642;9.956;2023-02-08T07:37:50;-3.80;99.90
13699;DHT22;6921;53.642;9.956;2023-02-08T07:39:52;-2.80;99.90
13699;DHT22;6921;53.642;9.956;2023-02-08T07:41:58;-3.20;99.90
13699;DHT22;6921;53.642;9.956;2023-02-08T07:44:01;-3.50;99.90
13699;DHT22;6921;53.642;9.956;2023-02-08T07:46:05;-3.10;99.90
13699;DHT22;6921;53.642;9.956;2023-02-08T07:48:08;-3.10;99.90
13699;DHT22;6921;53.642;9.956;2023-02-08T07:50:11;-3.00;99.90
13699;DHT22;6921;53.642;9.956;2023-02-08T07:52:15;-2.70;99.90
13699;DHT22;6921;53.642;9.956;2023-02-08T07:54:18;-2.60;99.90
13699;DHT22;6921;53.642;9.956;2023-02-08T07:56:21;-3.00;99.90
13699;DHT22;6921;53.642;9.956;2023-02-08T07:58:26;-3.30;99.90
13699;DHT22;6921;53.642;9.956;2023-02-08T08:00:29;-2.70;99.90
13699;DHT22;6921;53.642;9.956;2023-02-08T08:02:32;-2.30;99.90
13699;DHT22;6921;53.642;9.956;2023-02-08T08:04:35;-2.30;99.90
13699;DHT22;6921;53.642;9.956;2023-02-08T08:06:39;-2.90;99.90
13699;DHT22;6921;53.642;9.956;2023-02-08T08:08:42;-0.20;99.90
13699;DHT22;6921;53.642;9.956;2023-02-08T08:10:48;-2.70;99.90
13699;DHT22;6921;53.642;9.956;2023-02-08T08:12:51;-2.50;99.90
13699;DHT22;6921;53.642;9.956;2023-02-08T08:14:55;-2.50;99.90
13699;DHT22;6921;53.642;9.956;2023-02-08T08:19:01;-2.20;99.90
13699;DHT22;6921;53.642;9.956;2023-02-08T08:23:08;-2.10;99.90
13699;DHT22;6921;53.642;9.956;2023-02-08T08:27:15;-2.00;99.90
13699;DHT22;6921;53.642;9.956;2023-02-08T08:29:18;1.00;99.90
13699;DHT22;6921;53.642;9.956;2023-02-08T08:31:22;-2.70;99.90
13699;DHT22;6921;53.642;9.956;2023-02-08T08:33:25;-1.80;99.90
13699;DHT22;6921;53.642;9.956;2023-02-08T08:35:28;-2.20;99.90
13699;DHT22;6921;53.642;9.956;2023-02-08T08:37:32;-1.70;99.90
13699;DHT22;6921;53.642;9.956;2023-02-08T08:39:35;-1.70;99.90
13699;DHT22;6921;53.642;9.956;2023-02-08T08:41:38;-1.60;99.90
13699;DHT22;6921;53.642;9.956;2023-02-08T08:43:41;-1.10;99.90
13699;DHT22;6921;53.642;9.956;2023-02-08T08:45:44;-2.30;99.90
13699;DHT22;6921;53.642;9.956;2023-02-08T08:47:48;-1.20;99.90
13699;DHT22;6921;53.642;9.956;2023-02-08T08:49:52;0.90;99.90
13699;DHT22;6921;53.642;9.956;2023-02-08T08:51:55;0.20;99.90
13699;DHT22;6921;53.642;9.956;2023-02-08T08:53:58;-1.20;99.90
13699;DHT22;6921;53.642;9.956;2023-02-08T08:56:01;-1.60;99.90
13699;DHT22;6921;53.642;9.956;2023-02-08T08:58:05;-0.50;99.90
13699;DHT22;6921;53.642;9.956;2023-02-08T09:00:09;-1.10;99.90
13699;DHT22;6921;53.642;9.956;2023-02-08T09:02:13;-0.80;99.90
13699;DHT22;6921;53.642;9.956;2023-02-08T09:04:17;-0.70;99.90
13699;DHT22;6921;53.642;9.956;2023-02-08T09:06:20;1.40;99.90
13699;DHT22;6921;53.642;9.956;2023-02-08T09:08:23;-0.50;99.90
13699;DHT22;6921;53.642;9.956;2023-02-08T09:10:26;-0.90;99.90
13699;DHT22;6921;53.642;9.956;2023-02-08T09:20:44;1.40;99.90
13699;DHT22;6921;53.642;9.956;2023-02-08T09:39:23;3.40;99.90
13699;DHT22;6921;53.642;9.956;2023-02-08T10:02:46;3.40;99.90
13699;DHT22;6921;53.642;9.956;2023-02-08T10:29:26;6.70;99.90
13699;DHT22;6921;53.642;9.956;2023-02-08T10:31:41;7.20;99.90
13699;DHT22;6921;53.642;9.956;2023-02-08T10:48:55;7.50;99.90
13699;DHT22;6921;53.642;9.956;2023-02-08T11:28:59;7.50;99.90
13699;DHT22;6921;53.642;9.956;2023-02-08T11:31:17;7.60;99.90
13699;DHT22;6921;53.642;9.956;2023-02-08T11:35:25;7.70;99.90
13699;DHT22;6921;53.642;9.956;2023-02-08T11:39:37;8.50;99.90
13699;DHT22;6921;53.642;9.956;2023-02-08T11:41:42;8.80;99.90
13699;DHT22;6921;53.642;9.956;2023-02-08T11:43:55;8.90;99.90
13699;DHT22;6921;53.642;9.956;2023-02-08T11:46:01;8.80;99.90
13699;DHT22;6921;53.642;9.956;2023-02-08T11:48:19;8.70;99.90
13699;DHT22;6921;53.642;9.956;2023-02-08T11:50:24;8.50;99.90
13699;DHT22;6921;53.642;9.956;2023-02-08T11:52:30;8.30;99.90
13699;DHT22;6921;53.642;9.956;2023-02-08T11:54:40;8.00;99.90
13699;DHT22;6921;53.642;9.956;2023-02-08T11:56:43;7.80;99.90
13699;DHT22;6921;53.642;9.956;2023-02-08T11:59:05;8.30;99.90
13699;DHT22;6921;53.642;9.956;2023-02-08T12:01:19;9.20;99.90
13699;DHT22;6921;53.642;9.956;2023-02-08T12:03:26;9.30;99.90
13699;DHT22;6921;53.642;9.956;2023-02-08T12:05:37;9.50;99.90
13699;DHT22;6921;53.642;9.956;2023-02-08T12:07:52;10.20;99.90
13699;DHT22;6921;53.642;9.956;2023-02-08T12:10:14;9.40;99.90
13699;DHT22;6921;53.642;9.956;2023-02-08T12:12:24;9.20;99.90
13699;DHT22;6921;53.642;9.956;2023-02-08T12:17:02;9.60;99.90
13699;DHT22;6921;53.642;9.956;2023-02-08T12:21:44;10.50;99.90
13699;DHT22;6921;53.642;9.956;2023-02-08T12:23:51;10.90;99.90
13699;DHT22;6921;53.642;9.956;2023-02-08T12:26:03;10.90;99.90
13699;DHT22;6921;53.642;9.956;2023-02-08T12:28:18;10.30;99.90
13699;DHT22;6921;53.642;9.956;2023-02-08T12:30:29;10.10;99.90
13699;DHT22;6921;53.642;9.956;2023-02-08T12:32:56;9.70;99.90
13699;DHT22;6921;53.642;9.956;2023-02-08T12:37:52;9.30;99.90
13699;DHT22;6921;53.642;9.956;2023-02-08T12:40:25;8.90;99.90
13699;DHT22;6921;53.642;9.956;2023-02-08T12:43:05;8.80;99.90
13699;DHT22;6921;53.642;9.956;2023-02-08T12:47:58;9.00;99.90
13699;DHT22;6921;53.642;9.956;2023-02-08T12:50:14;9.20;99.90
13699;DHT22;6921;53.642;9.956;2023-02-08T12:52:29;8.80;99.90
13699;DHT22;6921;53.642;9.956;2023-02-08T12:54:36;8.00;99.90
